TPOK1: Kansas River, State-Line, KS

                                SHEF ID:       TPOK1     MARAIS DES CYGNES R NR KS-MO ST
STATION TYPE:

STAGE STAGE(2) RIV-FLOW BAT-LOAD
ft ft cfs volt
Ccp-Rev Ccp-Rev Ccp-Rev Ccp-Rev
(America/Chicago)
08/15 00:00 4.79 4.67 402 12.47
08/15 01:00 4.78 4.67 399 12.46
08/15 02:00 4.77 4.65 395 12.44
08/15 03:00 4.76 4.63 392 12.43
08/15 04:00 4.74 4.61 384 12.40
08/15 05:00 4.72 4.60 377 12.40
08/15 06:00 4.70 4.59 370 12.40
08/15 07:00 4.70 4.58 370 12.37
08/15 08:00 4.67 4.57 360 12.43
08/15 09:00 4.66 4.54 357 12.68
08/15 10:00 4.64 4.53 350 12.92
08/15 11:00 4.62 4.50 343 13.07
08/15 12:00 4.60 4.49 337 13.28
08/15 13:00 4.58 4.46 330 13.20
08/15 14:00 4.56 4.45 323 13.19
08/15 15:00 4.54 4.42 317 13.06
08/15 16:00 4.53 4.41 314 13.01
08/15 17:00 4.51 4.39 308 12.99
08/15 18:00 4.49 4.37 301 12.94
08/15 19:00 4.48 4.36 298 12.76
08/15 20:00 4.46 4.34 292 12.57
08/15 21:00 4.44 4.33 286 12.53
08/15 22:00 4.42 4.31 280 12.51
08/15 23:00 4.41 4.29 277 12.48
Data processed at Sun 16Aug2026 04:52 GMT

NOTICE: If you are parsing this page

Please convert to using our Data API. Starting early 2026 we will be migrating to: https://water.usace.army.mil with modern pages rendered in JavaScript. When this migration completes you will no longer be able to scrape this page! CWMSDataAPI (CDA)

Timeseries IDs (TSIDs)

TSIDs used from left to right in the data table
MKSL.Stage.Inst.1Hour.0.Ccp-Rev
MKSL.Stage-Alt.Inst.1Hour.0.Ccp-Rev
MKSL.Flow.Inst.1Hour.0.Ccp-Rev
MKSL.Volt-Battery Load.Inst.1Hour.0.Ccp-Rev

                            

All information presented herein is the property of the government of the United States of America and may be revised or deleted at any time without prior notice. Dissemination of this information without the expressed written consent of the Public Affairs Office, Tulsa District U.S. Army Corps of Engineers is strictly prohibited. These data are gathered electronically and, as presented, have NOT undergone any form of quality control. These data are NOT guaranteed to be valid or correct.